Time;durP1;ratioP1;P1;durP2;ratioP2;P2;SDS_P1;SDS_P2;PMS_P1;PMS_P2;Temp;Humidity;BMP_temperature;BMP_pressure;BME280_temperature;BME280_humidity;BME280_pressure;Samples;Min_cycle;Max_cycle;Signal;HPM_P1;HPM_P2
2022/10/20 00:02:21;;;;;;;13.93;3.97;;;;;;;10.45;100.00;95983.50;6332438;22;20014;-66
2022/10/20 00:04:46;;;;;;;14.75;3.88;;;;;;;10.41;100.00;95982.13;6332188;22;20037;-66
2022/10/20 00:07:11;;;;;;;7.22;3.70;;;;;;;10.48;100.00;95980.59;6332529;22;20443;-67
2022/10/20 00:09:37;;;;;;;6.93;3.35;;;;;;;10.48;100.00;95980.59;6332668;22;19999;-67
2022/10/20 00:12:03;;;;;;;7.30;3.67;;;;;;;10.46;100.00;95982.53;6332857;22;20748;-66
2022/10/20 00:14:28;;;;;;;10.02;4.05;;;;;;;10.47;100.00;95978.94;6332699;22;19990;-70
2022/10/20 00:16:53;;;;;;;9.77;3.88;;;;;;;10.42;100.00;95983.78;6332191;22;20003;-70
2022/10/20 00:19:19;;;;;;;15.68;4.57;;;;;;;10.44;100.00;95985.31;6332607;22;20033;-70
2022/10/20 00:21:44;;;;;;;6.57;4.32;;;;;;;10.48;100.00;95980.59;6332479;22;20608;-70
2022/10/20 00:24:09;;;;;;;9.35;3.85;;;;;;;10.53;100.00;95974.94;6332089;22;20009;-70
2022/10/20 00:26:35;;;;;;;14.02;3.70;;;;;;;10.55;100.00;95973.84;6332413;22;19994;-70
2022/10/20 00:29:02;;;;;;;7.53;3.70;;;;;;;10.56;100.00;95970.25;6332898;22;19994;-69
2022/10/20 00:31:28;;;;;;;8.38;3.85;;;;;;;10.60;100.00;95974.28;6332027;22;19995;-58
2022/10/20 00:33:53;;;;;;;12.13;3.70;;;;;;;10.66;100.00;95974.69;6331591;22;20017;-66
2022/10/20 00:36:21;;;;;;;8.52;3.83;;;;;;;10.66;100.00;95972.91;6331983;22;20074;-66
2022/10/20 00:38:47;;;;;;;12.63;3.90;;;;;;;10.67;100.00;95971.09;6332476;22;20037;-66
2022/10/20 00:41:19;;;;;;;15.30;4.60;;;;;;;10.65;100.00;95968.63;6332499;22;20048;-66
2022/10/20 00:43:44;;;;;;;8.23;3.75;;;;;;;10.67;100.00;95965.81;6332353;22;19999;-66
2022/10/20 00:46:12;;;;;;;8.27;3.92;;;;;;;10.72;100.00;95975.00;6331771;22;19999;-67
2022/10/20 00:48:39;;;;;;;11.63;3.55;;;;;;;10.77;100.00;95964.06;6332321;22;19998;-67
2022/10/20 00:51:05;;;;;;;6.93;3.88;;;;;;;10.82;100.00;95967.13;6332908;22;19998;-66
2022/10/20 00:53:31;;;;;;;8.25;3.63;;;;;;;10.86;100.00;95957.16;6332029;22;20009;-62
2022/10/20 00:55:58;;;;;;;13.10;3.67;;;;;;;10.86;100.00;95957.97;6332121;22;20458;-62
2022/10/20 00:58:24;;;;;;;11.25;3.47;;;;;;;10.86;100.00;95952.69;6332462;22;19994;-62
2022/10/20 01:00:53;;;;;;;8.63;4.20;;;;;;;10.85;100.00;95956.31;6332159;22;20003;-62
2022/10/20 01:03:23;;;;;;;8.07;3.80;;;;;;;10.84;100.00;95954.63;6331983;22;20055;-62
2022/10/20 01:05:49;;;;;;;17.13;3.55;;;;;;;10.84;100.00;95956.44;6332202;22;19999;-62
2022/10/20 01:08:14;;;;;;;8.52;4.30;;;;;;;10.88;100.00;95957.84;6332183;22;20052;-62
2022/10/20 01:11:01;;;;;;;13.60;3.95;;;;;;;10.86;100.00;95957.97;6332351;22;20003;-62
2022/10/20 01:13:47;;;;;;;21.08;4.00;;;;;;;10.88;100.00;95961.28;6331962;22;20007;-62
2022/10/20 01:16:23;;;;;;;10.75;3.72;;;;;;;10.88;100.00;95960.47;6331972;22;19998;-62
2022/10/20 01:19:31;;;;;;;9.77;4.10;;;;;;;10.91;100.00;95959.34;6332383;22;19995;-62
2022/10/20 01:22:34;;;;;;;10.07;3.50;;;;;;;10.89;100.00;95954.22;6332187;22;19995;-62
2022/10/20 01:25:17;;;;;;;7.13;2.90;;;;;;;10.90;100.00;95953.25;6331553;22;20010;-62
2022/10/20 01:28:05;;;;;;;5.15;3.15;;;;;;;10.91;100.00;95946.19;6332143;22;20051;-62
2022/10/20 01:30:35;;;;;;;7.25;2.97;;;;;;;10.87;100.00;95950.91;6332349;22;20091;-62
2022/10/20 01:33:26;;;;;;;4.60;3.40;;;;;;;10.86;100.00;95944.78;6331890;22;20093;-57
2022/10/20 01:36:08;;;;;;;13.68;3.35;;;;;;;10.86;100.00;95939.53;6331985;22;19999;-56
2022/10/20 01:38:40;;;;;;;8.27;3.58;;;;;;;10.89;100.00;95933.16;6332658;22;20010;-58
2022/10/20 01:41:22;;;;;;;10.63;3.33;;;;;;;10.89;100.00;95935.78;6332655;22;20010;-58
2022/10/20 01:43:49;;;;;;;9.38;3.17;;;;;;;10.90;100.00;95932.19;6332261;22;20078;-58
2022/10/20 01:46:17;;;;;;;11.63;2.65;;;;;;;10.94;100.00;95924.81;6333395;22;20003;-58
2022/10/20 01:48:45;;;;;;;9.98;3.03;;;;;;;10.97;100.00;95929.84;6333861;22;20029;-65
2022/10/20 01:51:10;;;;;;;11.10;3.50;;;;;;;10.97;100.00;95927.22;6333679;22;20003;-66
2022/10/20 01:53:36;;;;;;;10.35;3.35;;;;;;;10.95;100.00;95929.16;6333701;22;20094;-66
2022/10/20 01:56:03;;;;;;;9.73;3.45;;;;;;;10.99;100.00;95914.72;6333382;22;20001;-66
2022/10/20 01:58:28;;;;;;;6.78;3.17;;;;;;;11.06;100.00;95894.75;6333105;22;20026;-66
2022/10/20 02:01:06;;;;;;;8.73;3.10;;;;;;;11.03;100.00;95884.50;6335130;22;19995;-66
2022/10/20 02:03:57;;;;;;;12.70;3.25;;;;;;;11.14;100.00;95897.50;6334367;22;20523;-66
2022/10/20 02:06:40;;;;;;;6.75;3.53;;;;;;;11.08;100.00;95900.69;6335056;22;20002;-67
2022/10/20 02:09:14;;;;;;;7.47;3.08;;;;;;;11.14;100.00;95880.88;6336018;22;20038;-68
2022/10/20 02:11:55;;;;;;;8.20;3.25;;;;;;;11.15;100.00;95896.53;6335087;22;20005;-66
2022/10/20 02:14:22;;;;;;;14.48;3.33;;;;;;;11.05;100.00;95872.00;6335134;22;20344;-66
2022/10/20 02:16:59;;;;;;;6.53;2.90;;;;;;;11.00;100.00;95858.44;6334917;22;19994;-63
2022/10/20 02:19:30;;;;;;;7.05;3.10;;;;;;;10.88;100.00;95869.09;6335392;22;20007;-65
2022/10/20 02:21:56;;;;;;;28.02;19.83;;;;;;;10.81;100.00;95875.91;6334868;22;20317;-65
2022/10/20 02:24:26;;;;;;;19.33;11.65;;;;;;;10.75;100.00;95879.09;6335352;22;20005;-64
2022/10/20 02:26:55;;;;;;;8.07;4.50;;;;;;;10.73;100.00;95881.84;6334908;22;20003;-66
2022/10/20 02:29:26;;;;;;;8.65;3.25;;;;;;;10.79;100.00;95885.75;6335548;22;19994;-70
2022/10/20 02:31:52;;;;;;;8.65;3.83;;;;;;;10.68;100.00;95875.34;6335200;22;20037;-70
2022/10/20 02:34:17;;;;;;;10.18;3.70;;;;;;;10.63;100.00;95873.13;6334765;22;20006;-70
2022/10/20 02:36:43;;;;;;;9.77;3.45;;;;;;;10.54;100.00;95885.31;6334647;22;20006;-70
2022/10/20 02:39:09;;;;;;;10.05;3.58;;;;;;;10.47;100.00;95884.19;6335820;22;20341;-70
2022/10/20 02:41:36;;;;;;;10.13;3.58;;;;;;;10.43;100.00;95886.28;6335377;22;19995;-70
2022/10/20 02:44:01;;;;;;;10.43;3.13;;;;;;;10.43;100.00;95885.44;6335070;22;19999;-69
2022/10/20 02:46:27;;;;;;;7.78;3.25;;;;;;;10.42;100.00;95879.34;6334773;22;20125;-66
2022/10/20 02:48:53;;;;;;;7.82;3.47;;;;;;;10.39;100.00;95881.38;6334953;22;19995;-62
2022/10/20 02:51:18;;;;;;;6.20;3.40;;;;;;;10.35;100.00;95869.47;6334963;22;20007;-70
2022/10/20 02:53:44;;;;;;;9.63;4.47;;;;;;;10.29;100.00;95870.84;6334946;22;20070;-70
2022/10/20 02:56:10;;;;;;;8.85;3.15;;;;;;;10.27;100.00;95852.53;6334554;22;20347;-70
2022/10/20 02:58:36;;;;;;;11.93;4.10;;;;;;;10.27;100.00;95849.91;6335450;22;19994;-70
2022/10/20 03:01:02;;;;;;;9.82;3.10;;;;;;;10.23;100.00;95856.41;6334959;22;20588;-70
2022/10/20 03:03:28;;;;;;;13.75;3.10;;;;;;;10.21;100.00;95853.09;6335037;22;20002;-69
2022/10/20 03:05:53;;;;;;;13.13;3.38;;;;;;;10.22;100.00;95852.13;6334337;22;20003;-64
2022/10/20 03:08:19;;;;;;;13.55;3.65;;;;;;;10.23;100.00;95850.34;6307386;22;20017;-64
2022/10/20 03:10:44;;;;;;;6.13;3.88;;;;;;;10.18;100.00;95861.25;6307283;22;19991;-70
2022/10/20 03:13:10;;;;;;;11.00;2.90;;;;;;;10.25;100.00;95864.19;6335292;22;19994;-69
2022/10/20 03:15:36;;;;;;;8.90;2.88;;;;;;;10.33;100.00;95856.44;6334474;22;19991;-70
2022/10/20 03:18:02;;;;;;;11.50;3.50;;;;;;;10.33;100.00;95856.44;6334988;22;20447;-70
2022/10/20 03:20:27;;;;;;;15.40;3.03;;;;;;;10.35;100.00;95861.56;6334607;22;19998;-70
2022/10/20 03:22:52;;;;;;;4.90;3.03;;;;;;;10.35;100.00;95864.19;6334794;22;19995;-70
2022/10/20 03:25:18;;;;;;;6.80;3.85;;;;;;;10.35;100.00;95865.03;6333884;22;20030;-64
2022/10/20 03:27:43;;;;;;;5.10;3.17;;;;;;;10.35;100.00;95864.19;6334954;22;20001;-58
2022/10/20 03:30:09;;;;;;;12.27;3.30;;;;;;;10.36;100.00;95860.59;6335038;22;20007;-66
2022/10/20 03:32:35;;;;;;;10.13;3.38;;;;;;;10.39;100.00;95861.16;6334735;22;20403;-66
2022/10/20 03:35:00;;;;;;;12.95;3.97;;;;;;;10.50;100.00;95869.94;6334115;22;20018;-66
2022/10/20 03:37:25;;;;;;;14.57;3.50;;;;;;;10.55;100.00;95871.19;6334455;22;20492;-66
2022/10/20 03:39:51;;;;;;;8.05;3.10;;;;;;;10.56;100.00;95872.00;6334968;22;20429;-67
2022/10/20 03:42:16;;;;;;;6.38;3.38;;;;;;;10.57;100.00;95879.78;6334419;22;20011;-67
2022/10/20 03:44:43;;;;;;;10.77;3.40;;;;;;;10.59;100.00;95883.09;6334553;22;20078;-66
2022/10/20 03:47:10;;;;;;;12.25;3.38;;;;;;;10.65;100.00;95884.38;6334623;22;19999;-66
2022/10/20 03:49:35;;;;;;;9.63;2.88;;;;;;;10.68;100.00;95885.88;6307075;22;19999;-66
2022/10/20 03:52:01;;;;;;;10.95;3.00;;;;;;;10.71;100.00;95890.84;6334308;22;20052;-66
2022/10/20 03:54:26;;;;;;;5.40;2.58;;;;;;;10.73;100.00;95888.94;6334568;22;19999;-66
2022/10/20 03:56:52;;;;;;;9.82;3.53;;;;;;;10.75;100.00;95903.63;6334173;22;20715;-66
2022/10/20 03:59:17;;;;;;;10.80;2.90;;;;;;;10.74;100.00;95911.66;6334534;22;20137;-67
2022/10/20 04:01:44;;;;;;;10.10;2.97;;;;;;;10.74;100.00;95912.50;6334522;22;20022;-67
2022/10/20 04:04:10;;;;;;;6.30;3.08;;;;;;;10.71;100.00;95919.81;6334389;22;19999;-62
2022/10/20 04:06:36;;;;;;;10.73;2.72;;;;;;;10.73;100.00;95910.00;6334315;22;20116;-66
2022/10/20 04:09:01;;;;;;;11.57;3.05;;;;;;;10.71;100.00;95917.19;6334677;22;19998;-69
2022/10/20 04:11:26;;;;;;;7.00;2.92;;;;;;;10.72;100.00;95909.16;6334213;22;20060;-69
2022/10/20 04:13:52;;;;;;;6.90;3.08;;;;;;;10.73;100.00;95910.00;6334498;22;19998;-70
2022/10/20 04:16:18;;;;;;;14.15;2.78;;;;;;;10.74;100.00;95914.31;6333953;22;20033;-70
2022/10/20 04:18:43;;;;;;;7.78;2.88;;;;;;;10.87;100.00;95912.22;6334264;22;19995;-70
2022/10/20 04:21:09;;;;;;;6.35;3.10;;;;;;;10.82;100.00;95917.06;6334706;22;20015;-70
2022/10/20 04:23:34;;;;;;;5.30;2.85;;;;;;;10.78;100.00;95902.53;6334098;22;20018;-59
2022/10/20 04:26:06;;;;;;;13.88;3.25;;;;;;;10.75;100.00;95918.59;6333936;22;20038;-65
2022/10/20 04:28:32;;;;;;;10.82;3.20;;;;;;;10.79;100.00;95909.44;6334574;22;20047;-59
2022/10/20 04:30:59;;;;;;;8.52;2.92;;;;;;;10.74;100.00;95911.66;6334389;22;20074;-59
2022/10/20 04:33:24;;;;;;;11.60;3.50;;;;;;;10.73;100.00;95931.06;6333653;22;20444;-60
2022/10/20 04:36:03;;;;;;;13.25;2.65;;;;;;;10.73;100.00;95928.44;6333889;22;19999;-59
2022/10/20 04:38:29;;;;;;;9.20;3.25;;;;;;;10.75;100.00;95924.69;6334089;22;19999;-60
2022/10/20 04:40:57;;;;;;;18.95;3.25;;;;;;;10.78;100.00;95933.28;6334515;22;20034;-59
2022/10/20 04:43:22;;;;;;;6.63;2.55;;;;;;;10.78;100.00;95926.22;6333920;22;20436;-59
2022/10/20 04:45:47;;;;;;;11.65;2.72;;;;;;;10.78;100.00;95923.59;6333666;22;19998;-64
2022/10/20 04:48:13;;;;;;;6.68;3.00;;;;;;;10.80;100.00;95915.53;6334023;22;20001;-64
2022/10/20 04:50:38;;;;;;;14.63;3.20;;;;;;;10.74;100.00;95907.22;6334720;22;20387;-64
2022/10/20 04:53:04;;;;;;;11.02;3.10;;;;;;;10.74;100.00;95924.84;6333865;22;19994;-64
2022/10/20 04:55:29;;;;;;;9.50;3.03;;;;;;;10.75;100.00;95915.97;6333499;22;20009;-64
2022/10/20 04:57:54;;;;;;;8.25;3.03;;;;;;;10.80;100.00;95915.53;6333803;22;20013;-64
2022/10/20 05:00:20;;;;;;;5.45;2.85;;;;;;;10.78;100.00;95918.31;6334193;22;20455;-64
2022/10/20 05:02:45;;;;;;;7.70;2.92;;;;;;;10.83;100.00;95925.78;6334138;22;20428;-59
2022/10/20 05:05:11;;;;;;;16.48;4.20;;;;;;;10.94;100.00;95925.66;6333793;22;19998;-60
2022/10/20 05:07:36;;;;;;;6.57;2.95;;;;;;;10.87;100.00;95928.00;6333698;22;20014;-59
2022/10/20 05:10:02;;;;;;;8.15;3.30;;;;;;;11.17;100.00;95935.91;6334461;22;20033;-60
2022/10/20 05:12:27;;;;;;;5.95;2.70;;;;;;;11.00;100.00;95935.66;6334107;22;20429;-60
2022/10/20 05:14:52;;;;;;;10.70;3.67;;;;;;;10.94;100.00;95938.00;6333857;22;19995;-60
2022/10/20 05:17:18;;;;;;;9.10;3.20;;;;;;;10.95;100.00;95950.22;6333589;22;20005;-60
2022/10/20 05:19:44;;;;;;;12.15;3.42;;;;;;;10.94;100.00;95945.91;6335022;22;19998;-59
2022/10/20 05:22:10;;;;;;;6.93;3.60;;;;;;;10.91;100.00;95949.66;6336344;22;20348;-69
2022/10/20 05:24:35;;;;;;;11.85;3.67;;;;;;;10.91;100.00;95933.00;6336006;22;20013;-65
2022/10/20 05:27:01;;;;;;;6.13;3.42;;;;;;;10.90;100.00;95945.34;6307670;22;20038;-65
2022/10/20 05:29:26;;;;;;;10.60;3.70;;;;;;;10.92;100.00;95946.06;6335522;22;20014;-65
2022/10/20 05:31:52;;;;;;;14.15;3.95;;;;;;;10.97;100.00;95948.28;6335545;22;20007;-66
2022/10/20 05:34:17;;;;;;;13.27;3.72;;;;;;;10.99;100.00;95952.41;6334995;22;20053;-66
2022/10/20 05:36:42;;;;;;;7.18;3.30;;;;;;;11.01;100.00;95944.41;6334317;22;20007;-66
2022/10/20 05:39:09;;;;;;;10.82;3.13;;;;;;;11.02;100.00;95940.78;6334500;22;20340;-66
2022/10/20 05:41:34;;;;;;;7.90;3.35;;;;;;;11.00;100.00;95938.28;6333503;22;20086;-67
2022/10/20 05:44:03;;;;;;;7.78;3.35;;;;;;;11.02;100.00;95938.16;6333556;22;20022;-65
2022/10/20 05:46:32;;;;;;;7.40;3.50;;;;;;;11.09;100.00;95931.34;6335085;22;20432;-65
2022/10/20 05:49:00;;;;;;;9.18;3.45;;;;;;;11.14;100.00;95934.38;6335583;22;20018;-65
2022/10/20 05:51:32;;;;;;;7.47;3.83;;;;;;;11.15;100.00;95932.59;6333792;22;20002;-65
2022/10/20 05:53:58;;;;;;;6.47;3.25;;;;;;;11.14;100.00;95923.03;6333320;22;19999;-65
2022/10/20 05:56:25;;;;;;;7.38;3.63;;;;;;;11.13;100.00;95922.19;6332588;22;19995;-65
2022/10/20 05:58:51;;;;;;;6.22;3.42;;;;;;;11.16;100.00;95934.25;6333440;22;20013;-65
2022/10/20 06:01:23;;;;;;;13.00;3.72;;;;;;;11.14;100.00;95937.03;6333829;22;20003;-63
2022/10/20 06:03:55;;;;;;;7.00;3.45;;;;;;;11.29;100.00;95934.81;6334564;22;19995;-55
2022/10/20 06:06:30;;;;;;;8.05;3.85;;;;;;;11.28;100.00;95935.78;6334752;22;20009;-58
2022/10/20 06:08:58;;;;;;;8.43;3.33;;;;;;;11.25;100.00;95927.31;6334109;22;20013;-56
2022/10/20 06:11:24;;;;;;;8.95;3.60;;;;;;;11.25;100.00;95924.69;6334977;22;20010;-58
2022/10/20 06:13:50;;;;;;;10.10;4.30;;;;;;;11.25;100.00;95932.59;6335047;22;20090;-58
2022/10/20 06:16:18;;;;;;;8.80;3.88;;;;;;;11.26;100.00;95950.88;6335096;22;20030;-58
2022/10/20 06:18:43;;;;;;;12.00;4.20;;;;;;;11.28;100.00;95945.50;6335113;22;19999;-66
2022/10/20 06:21:12;;;;;;;12.75;3.63;;;;;;;11.30;100.00;95948.81;6335837;22;20440;-65
2022/10/20 06:23:37;;;;;;;11.57;3.88;;;;;;;11.28;100.00;95958.66;6334676;22;20003;-62
2022/10/20 06:26:05;;;;;;;13.57;4.00;;;;;;;11.29;100.00;95955.91;6335802;22;20314;-62
2022/10/20 06:28:32;;;;;;;6.68;3.38;;;;;;;11.30;100.00;95954.94;6335339;22;19998;-62
2022/10/20 06:30:59;;;;;;;8.70;3.60;;;;;;;11.32;100.00;95965.31;6335111;22;20014;-63
2022/10/20 06:33:25;;;;;;;11.18;3.78;;;;;;;11.32;100.00;95968.78;6335558;22;20018;-63
2022/10/20 06:35:50;;;;;;;10.35;3.35;;;;;;;11.37;100.00;95971.00;6335925;22;20002;-62
2022/10/20 06:38:16;;;;;;;6.88;3.58;;;;;;;11.40;100.00;95969.91;6335640;22;19999;-64
2022/10/20 06:40:41;;;;;;;13.70;3.65;;;;;;;11.42;100.00;95981.13;6336071;22;20003;-66
2022/10/20 06:43:06;;;;;;;9.48;3.67;;;;;;;11.41;100.00;95988.22;6335943;22;20309;-67
2022/10/20 06:45:32;;;;;;;13.35;3.83;;;;;;;11.43;100.00;95986.28;6334862;22;20034;-68
2022/10/20 06:47:57;;;;;;;7.47;3.95;;;;;;;11.51;100.00;95961.84;6335576;22;20015;-69
2022/10/20 06:50:22;;;;;;;13.88;4.35;;;;;;;11.55;100.00;95970.28;6335456;22;19999;-68
2022/10/20 06:52:48;;;;;;;10.48;4.10;;;;;;;11.58;100.00;95975.28;6332859;22;20076;-68
2022/10/20 06:55:13;;;;;;;7.43;3.70;;;;;;;11.64;100.00;95972.09;6331813;22;20048;-70
2022/10/20 06:57:39;;;;;;;14.63;3.53;;;;;;;11.70;100.00;95982.06;6333523;22;19998;-71
2022/10/20 07:00:05;;;;;;;12.00;3.38;;;;;;;11.80;100.00;95976.78;6334508;22;20587;-66
2022/10/20 07:02:30;;;;;;;8.10;3.53;;;;;;;11.91;100.00;95973.13;6334819;22;20069;-67
2022/10/20 07:04:55;;;;;;;11.50;4.32;;;;;;;11.97;100.00;95998.13;6333065;22;20030;-69
2022/10/20 07:07:21;;;;;;;4.95;3.00;;;;;;;12.03;100.00;95998.38;6332746;22;20006;-68
2022/10/20 07:09:46;;;;;;;5.82;3.13;;;;;;;12.09;100.00;95982.97;6333661;22;19994;-68
2022/10/20 07:12:11;;;;;;;11.43;3.60;;;;;;;12.17;100.00;95981.28;6332911;22;20010;-67
2022/10/20 07:14:37;;;;;;;10.75;3.50;;;;;;;12.30;100.00;95986.22;6333033;22;19998;-68
2022/10/20 07:17:03;;;;;;;6.43;3.40;;;;;;;12.37;100.00;95985.63;6333010;22;20005;-65
2022/10/20 07:19:29;;;;;;;8.25;3.28;;;;;;;12.47;100.00;95991.69;6333185;22;20436;-66
2022/10/20 07:21:54;;;;;;;11.90;3.53;;;;;;;12.54;100.00;95981.38;6332786;22;20010;-59
2022/10/20 07:24:19;;;;;;;10.45;4.35;;;;;;;12.58;100.00;95990.66;6331659;22;20026;-59
2022/10/20 07:26:45;;;;;;;6.78;3.28;;;;;;;12.63;100.00;95983.16;6332446;22;20424;-59
2022/10/20 07:29:11;;;;;;;8.30;3.45;;;;;;;12.67;100.00;95987.16;6332548;22;20021;-58
2022/10/20 07:31:39;;;;;;;9.40;3.72;;;;;;;12.76;100.00;95990.72;6333363;22;20455;-59
2022/10/20 07:34:06;;;;;;;8.50;3.53;;;;;;;12.79;100.00;95993.06;6332690;22;20406;-59
2022/10/20 07:36:34;;;;;;;6.55;3.38;;;;;;;12.79;100.00;95993.06;6334936;22;19990;-67
2022/10/20 07:39:03;;;;;;;10.40;3.28;;;;;;;12.73;100.00;95985.75;6333987;22;20011;-66
2022/10/20 07:41:28;;;;;;;13.50;3.40;;;;;;;12.74;99.61;95985.56;6334716;22;19998;-59
2022/10/20 07:43:55;;;;;;;12.27;4.22;;;;;;;12.71;100.00;95985.03;6334134;22;20012;-60
2022/10/20 07:46:20;;;;;;;8.32;3.20;;;;;;;12.77;100.00;95988.91;6332844;22;20082;-60
2022/10/20 07:48:46;;;;;;;9.95;3.72;;;;;;;12.75;100.00;96002.28;6333295;22;20040;-60
2022/10/20 07:51:21;;;;;;;11.68;3.92;;;;;;;12.82;100.00;95992.75;6331977;22;19999;-60
2022/10/20 07:54:06;;;;;;;8.32;3.85;;;;;;;12.90;99.73;96018.44;6333722;22;20367;-60
2022/10/20 07:56:37;;;;;;;9.52;3.60;;;;;;;12.85;99.63;96024.16;6333046;22;20037;-69
2022/10/20 07:59:03;;;;;;;9.45;4.07;;;;;;;12.80;100.00;96044.94;6332710;22;20006;-69
2022/10/20 08:01:29;;;;;;;5.68;3.70;;;;;;;12.74;100.00;96053.44;6332101;22;20003;-65
2022/10/20 08:03:54;;;;;;;12.68;4.25;;;;;;;12.80;100.00;96042.28;6332299;22;20025;-65
2022/10/20 08:06:20;;;;;;;11.55;4.20;;;;;;;12.79;100.00;96016.00;6333492;22;20030;-63
2022/10/20 08:08:45;;;;;;;9.52;4.28;;;;;;;12.70;100.00;96017.72;6334089;22;20006;-64
2022/10/20 08:11:11;;;;;;;9.52;4.35;;;;;;;12.64;100.00;96035.00;6334448;22;20492;-64
2022/10/20 08:13:39;;;;;;;11.05;4.18;;;;;;;12.73;100.00;96046.50;6332095;22;20007;-64
2022/10/20 08:16:06;;;;;;;8.90;4.70;;;;;;;12.90;100.00;96063.38;6332275;22;19994;-63
2022/10/20 08:18:31;;;;;;;10.40;4.93;;;;;;;13.02;100.00;96061.34;6333143;22;20070;-57
2022/10/20 08:21:13;;;;;;;11.43;4.90;;;;;;;13.14;100.00;96073.38;6332264;22;20037;-60
2022/10/20 08:23:43;;;;;;;9.15;4.90;;;;;;;13.17;100.00;96070.47;6332950;22;20006;-60
2022/10/20 08:26:09;;;;;;;12.48;5.35;;;;;;;13.13;100.00;96058.50;6332789;22;20022;-60
2022/10/20 08:28:36;;;;;;;10.68;5.35;;;;;;;13.09;100.00;96051.84;6332344;22;20017;-59
2022/10/20 08:31:04;;;;;;;13.95;5.53;;;;;;;13.05;100.00;96031.97;6332336;22;20011;-59
2022/10/20 08:33:30;;;;;;;14.45;4.80;;;;;;;13.08;100.00;96042.25;6331274;22;20015;-59
2022/10/20 08:35:59;;;;;;;6.95;5.20;;;;;;;13.09;100.00;96041.28;6303924;22;20006;-63
2022/10/20 08:38:24;;;;;;;6.25;4.93;;;;;;;13.08;100.00;96026.41;6332426;22;19998;-63
2022/10/20 08:40:50;;;;;;;16.63;5.78;;;;;;;13.07;100.00;96022.09;6332426;22;20009;-62
2022/10/20 08:43:18;;;;;;;7.65;4.65;;;;;;;13.02;100.00;96016.44;6306330;22;20025;-63
2022/10/20 08:45:44;;;;;;;11.55;5.35;;;;;;;13.01;100.00;96007.66;6331445;22;20029;-63
2022/10/20 08:48:26;;;;;;;17.40;5.15;;;;;;;13.02;100.00;95990.81;6305091;22;20007;-63
2022/10/20 08:50:52;;;;;;;12.48;5.72;;;;;;;13.11;100.00;95983.81;6333895;22;19998;-62
2022/10/20 08:53:23;;;;;;;10.30;5.50;;;;;;;13.12;100.00;95971.44;6333918;22;19995;-62
2022/10/20 08:55:50;;;;;;;12.27;5.63;;;;;;;13.17;100.00;95951.50;6333704;22;20069;-64
2022/10/20 08:58:20;;;;;;;8.20;5.70;;;;;;;13.20;100.00;95944.25;6333959;22;19999;-63
2022/10/20 09:00:47;;;;;;;11.65;6.53;;;;;;;13.17;100.00;95940.91;6333972;22;19998;-62
2022/10/20 09:03:21;;;;;;;13.70;6.13;;;;;;;13.28;100.00;95904.63;6334119;22;20003;-63
2022/10/20 09:05:52;;;;;;;11.55;6.28;;;;;;;13.46;100.00;95910.75;6333866;22;20343;-63
2022/10/20 09:08:20;;;;;;;11.75;5.82;;;;;;;13.60;100.00;95911.19;6333485;22;20425;-63
2022/10/20 09:10:51;;;;;;;12.45;5.68;;;;;;;13.66;100.00;95918.50;6332860;22;20006;-63
2022/10/20 09:13:29;;;;;;;13.63;6.22;;;;;;;13.78;100.00;95923.50;6333365;22;20002;-61
2022/10/20 09:16:02;;;;;;;12.55;6.05;;;;;;;13.85;100.00;95908.69;6334614;22;20066;-58
2022/10/20 09:18:28;;;;;;;13.50;6.13;;;;;;;13.98;100.00;95918.84;6334003;22;20054;-69
2022/10/20 09:21:00;;;;;;;12.70;7.03;;;;;;;14.12;100.00;95912.13;6334331;22;20005;-68
2022/10/20 09:23:41;;;;;;;6.78;5.40;;;;;;;14.28;100.00;95898.97;6333990;22;20009;-68
2022/10/20 09:26:16;;;;;;;13.35;5.25;;;;;;;14.44;100.00;95892.03;6333753;22;20030;-67
2022/10/20 09:28:41;;;;;;;10.75;5.38;;;;;;;14.59;100.00;95890.44;6333802;22;20077;-68
2022/10/20 09:31:31;;;;;;;13.90;6.57;;;;;;;14.77;100.00;95886.00;6333371;22;20409;-68
2022/10/20 09:33:57;;;;;;;13.80;5.50;;;;;;;14.92;100.00;95879.09;6333925;22;20042;-67
2022/10/20 09:36:32;;;;;;;14.38;5.45;;;;;;;14.92;100.00;95888.84;6333947;22;20003;-63
2022/10/20 09:38:58;;;;;;;6.47;4.55;;;;;;;14.92;99.50;95884.38;6333799;22;19999;-64
2022/10/20 09:41:26;;;;;;;10.50;4.80;;;;;;;14.87;99.99;95884.88;6333780;22;19994;-64
2022/10/20 09:43:53;;;;;;;11.30;5.53;;;;;;;14.87;100.00;95889.34;6333385;22;20002;-63
2022/10/20 09:46:43;;;;;;;10.48;4.95;;;;;;;14.88;100.00;95881.22;6333830;22;20604;-64
2022/10/20 09:49:22;;;;;;;7.90;3.97;;;;;;;14.89;100.00;95887.38;6334300;22;20013;-64
2022/10/20 09:51:48;;;;;;;13.50;4.88;;;;;;;14.92;100.00;95888.84;6333420;22;20007;-67
2022/10/20 09:54:18;;;;;;;12.63;4.55;;;;;;;14.99;100.00;95879.25;6330777;22;20021;-59
2022/10/20 09:56:45;;;;;;;8.50;4.75;;;;;;;15.10;100.00;95904.63;6333038;22;20048;-68
2022/10/20 09:59:20;;;;;;;15.38;5.95;;;;;;;15.04;100.00;95914.91;6333925;22;19994;-68
2022/10/20 10:02:00;;;;;;;10.75;6.20;;;;;;;14.94;100.00;95897.50;6333583;22;19995;-68
2022/10/20 10:04:35;;;;;;;12.63;6.10;;;;;;;14.87;100.00;95895.47;6333566;22;20090;-70
2022/10/20 10:07:03;;;;;;;12.60;6.93;;;;;;;14.98;100.00;95901.47;6335406;22;20006;-69
2022/10/20 10:09:33;;;;;;;12.55;6.25;;;;;;;14.94;100.00;95894.84;6336203;22;19998;-70
2022/10/20 10:12:03;;;;;;;10.60;6.82;;;;;;;15.01;100.00;95883.38;6333341;22;19999;-67
2022/10/20 10:14:32;;;;;;;16.38;6.68;;;;;;;15.11;100.00;95888.53;6334472;22;20029;-61
2022/10/20 10:16:58;;;;;;;13.45;6.28;;;;;;;15.23;100.00;95889.03;6333893;22;20466;-58
2022/10/20 10:19:30;;;;;;;16.02;6.93;;;;;;;15.34;100.00;95882.56;6333158;22;20011;-57
2022/10/20 10:22:04;;;;;;;13.90;5.93;;;;;;;15.52;98.85;95892.16;6332620;22;20074;-58
2022/10/20 10:24:46;;;;;;;10.10;6.30;;;;;;;15.76;99.02;95870.88;6334518;22;19999;-58
2022/10/20 10:27:33;;;;;;;10.30;5.57;;;;;;;16.03;96.42;95871.50;6334027;22;20383;-58
2022/10/20 10:30:22;;;;;;;12.70;5.43;;;;;;;16.15;94.74;95876.41;6335211;22;20078;-58
2022/10/20 10:32:48;;;;;;;11.80;5.22;;;;;;;16.24;92.25;95867.41;6333706;22;20124;-61
2022/10/20 10:35:39;;;;;;;12.90;5.40;;;;;;;16.36;92.64;95864.38;6333757;22;20421;-68
2022/10/20 10:38:09;;;;;;;11.52;5.05;;;;;;;16.52;91.29;95861.63;6333930;22;20003;-68
2022/10/20 10:40:58;;;;;;;15.23;6.18;;;;;;;16.57;89.11;95861.94;6334712;22;20432;-68
2022/10/20 10:43:49;;;;;;;10.35;5.72;;;;;;;16.68;90.34;95859.84;6334520;22;19999;-68
2022/10/20 10:46:22;;;;;;;12.57;5.30;;;;;;;16.74;87.79;95864.50;6334606;22;20002;-68
2022/10/20 10:48:48;;;;;;;11.95;5.55;;;;;;;16.78;89.33;95849.00;6334793;22;20436;-68
2022/10/20 10:51:38;;;;;;;24.02;6.10;;;;;;;16.85;89.38;95848.13;6335309;22;20013;-68
2022/10/20 10:54:39;;;;;;;13.75;5.25;;;;;;;16.82;89.97;95845.00;6335392;22;20002;-69
2022/10/20 10:57:26;;;;;;;15.30;5.25;;;;;;;16.74;89.13;95845.88;6334867;22;20070;-70
2022/10/20 10:59:52;;;;;;;16.27;4.88;;;;;;;16.86;88.05;95841.78;6334682;22;20025;-69
2022/10/20 11:02:36;;;;;;;18.08;5.35;;;;;;;16.79;88.42;95842.69;6334196;22;20002;-69
2022/10/20 11:05:13;;;;;;;14.98;5.75;;;;;;;16.83;88.25;95844.81;6334864;22;20006;-69
2022/10/20 11:07:49;;;;;;;12.82;4.95;;;;;;;16.64;87.21;95843.47;6334792;22;20011;-70
2022/10/20 11:10:50;;;;;;;13.18;4.63;;;;;;;16.46;88.89;95844.56;6334528;22;19998;-61
2022/10/20 11:13:47;;;;;;;13.50;4.80;;;;;;;16.47;91.65;95829.47;6334751;22;19998;-61
2022/10/20 11:16:34;;;;;;;14.68;5.00;;;;;;;16.50;92.43;95822.94;6307242;22;20428;-62
2022/10/20 11:19:36;;;;;;;13.40;5.35;;;;;;;16.56;92.65;95817.75;6334495;22;20066;-61
2022/10/20 11:22:27;;;;;;;15.32;5.18;;;;;;;16.68;86.70;95806.69;6333520;22;20003;-61
2022/10/20 11:25:14;;;;;;;9.20;5.05;;;;;;;16.80;87.91;95810.59;6333000;22;20534;-61
2022/10/20 11:27:39;;;;;;;19.73;5.95;;;;;;;16.89;88.03;95817.50;6333090;22;19998;-61
2022/10/20 11:30:20;;;;;;;14.27;6.10;;;;;;;16.90;86.74;95818.34;6332981;22;20022;-69
2022/10/20 11:33:02;;;;;;;9.68;5.07;;;;;;;16.89;85.45;95812.19;6332010;22;20037;-60
2022/10/20 11:35:38;;;;;;;12.07;5.68;;;;;;;16.95;88.83;95809.84;6332057;22;19990;-60